createdAt,value
2019-02-22T00:00:05.541Z,10.56
2019-02-22T00:02:40.402Z,10.57
2019-02-22T00:05:11.699Z,10.60
2019-02-22T00:07:43.066Z,10.58
2019-02-22T00:10:14.235Z,10.59
2019-02-22T00:12:45.653Z,10.60
2019-02-22T00:15:16.866Z,10.58
2019-02-22T00:17:48.063Z,10.60
2019-02-22T00:20:19.346Z,10.61
2019-02-22T00:22:50.563Z,10.59
2019-02-22T00:25:22.711Z,10.59
2019-02-22T00:27:53.874Z,10.58
2019-02-22T00:30:25.075Z,10.57
2019-02-22T00:32:56.259Z,10.57
2019-02-22T00:35:27.534Z,10.57
2019-02-22T00:37:58.833Z,10.58
2019-02-22T00:40:30.023Z,10.58
2019-02-22T00:43:01.350Z,10.58
2019-02-22T00:45:32.555Z,10.59
2019-02-22T00:48:03.771Z,10.59
2019-02-22T00:50:35.101Z,10.61
2019-02-22T00:53:06.372Z,10.64
2019-02-22T00:55:37.591Z,10.65
2019-02-22T00:58:08.747Z,10.64
2019-02-22T01:00:39.922Z,10.64
2019-02-22T01:03:11.055Z,10.63
2019-02-22T01:05:42.352Z,10.61
2019-02-22T01:08:13.509Z,10.61
2019-02-22T01:10:44.666Z,10.61
2019-02-22T01:13:15.836Z,10.60
2019-02-22T01:15:47.091Z,10.60
2019-02-22T01:18:18.261Z,10.58
2019-02-22T01:20:54.422Z,10.60
2019-02-22T01:23:22.510Z,10.59
2019-02-22T01:25:53.806Z,10.59
2019-02-22T01:28:25.093Z,10.60
2019-02-22T01:30:57.304Z,10.59
2019-02-22T01:33:28.614Z,10.58
2019-02-22T01:35:59.869Z,10.57
2019-02-22T01:38:31.116Z,10.55
2019-02-22T01:41:02.385Z,10.53
2019-02-22T01:43:33.663Z,10.52
2019-02-22T01:46:04.920Z,10.51
2019-02-22T01:48:36.171Z,10.50
2019-02-22T01:51:07.377Z,10.50
2019-02-22T01:53:38.622Z,10.50
2019-02-22T01:56:09.851Z,10.51
2019-02-22T01:58:48.351Z,10.53
2019-02-22T02:01:13.950Z,10.53
2019-02-22T02:03:45.220Z,10.53
2019-02-22T02:06:16.426Z,10.52
2019-02-22T02:08:47.704Z,10.54
2019-02-22T02:11:18.959Z,10.56
2019-02-22T02:13:50.361Z,10.54
2019-02-22T02:16:21.581Z,10.52
2019-02-22T02:18:52.778Z,10.51
2019-02-22T02:21:24.103Z,10.49
2019-02-22T02:23:55.322Z,10.50
2019-02-22T02:26:26.503Z,10.47
2019-02-22T02:28:57.698Z,10.46
2019-02-22T02:31:28.989Z,10.48
2019-02-22T02:34:00.365Z,10.49
2019-02-22T02:36:31.572Z,10.49
2019-02-22T02:39:02.811Z,10.51
2019-02-22T02:41:37.682Z,10.52
2019-02-22T02:44:08.974Z,10.54
2019-02-22T02:46:40.223Z,10.56
2019-02-22T02:49:11.585Z,10.60
2019-02-22T02:51:42.818Z,10.63
2019-02-22T02:54:14.065Z,10.65
2019-02-22T02:56:46.325Z,10.65
2019-02-22T02:59:17.605Z,10.66
2019-02-22T03:01:48.837Z,10.68
2019-02-22T03:04:20.030Z,10.71
2019-02-22T03:07:01.146Z,10.75
2019-02-22T03:09:33.388Z,10.75
2019-02-22T03:12:04.634Z,10.76
2019-02-22T03:14:35.837Z,10.77
2019-02-22T03:17:07.024Z,10.78
2019-02-22T03:19:38.216Z,10.79
2019-02-22T03:22:09.504Z,10.80
2019-02-22T03:24:40.670Z,10.79
2019-02-22T03:27:11.892Z,10.80
2019-02-22T03:29:43.014Z,10.77
2019-02-22T03:32:14.191Z,10.77
2019-02-22T03:34:45.350Z,10.73
2019-02-22T03:37:16.581Z,10.73
2019-02-22T03:39:47.808Z,10.71
2019-02-22T03:42:19.059Z,10.71
2019-02-22T03:44:51.252Z,10.70
2019-02-22T03:47:22.540Z,10.67
2019-02-22T03:49:53.735Z,10.67
2019-02-22T03:52:35.762Z,10.63
2019-02-22T03:55:07.544Z,10.61
2019-02-22T03:57:38.742Z,10.56
2019-02-22T04:00:10.135Z,10.56
2019-02-22T04:02:41.334Z,10.55
2019-02-22T04:05:12.494Z,10.57
2019-02-22T04:07:43.696Z,10.56
2019-02-22T04:10:14.933Z,10.55
2019-02-22T04:12:46.206Z,10.53
2019-02-22T04:15:17.437Z,10.51
2019-02-22T04:17:48.630Z,10.50
2019-02-22T04:20:19.822Z,10.51
2019-02-22T04:22:52.069Z,10.49
2019-02-22T04:25:23.295Z,10.47
2019-02-22T04:27:54.479Z,10.46
2019-02-22T04:30:25.763Z,10.46
2019-02-22T04:32:56.947Z,10.46
2019-02-22T04:35:28.246Z,10.44
2019-02-22T04:37:59.511Z,10.45
2019-02-22T04:40:30.797Z,10.45
2019-02-22T04:43:01.955Z,10.47
2019-02-22T04:45:33.281Z,10.46
2019-02-22T04:48:05.578Z,10.47
2019-02-22T04:50:36.811Z,10.48
2019-02-22T04:53:07.986Z,10.48
2019-02-22T04:55:39.194Z,10.49
2019-02-22T04:58:10.499Z,10.48
2019-02-22T05:00:41.717Z,10.48
2019-02-22T05:03:12.916Z,10.46
2019-02-22T05:05:44.239Z,10.43
2019-02-22T05:08:15.463Z,10.42
2019-02-22T05:10:46.683Z,10.39
2019-02-22T05:13:17.869Z,10.37
2019-02-22T05:15:49.365Z,10.36
2019-02-22T05:18:20.670Z,10.37
2019-02-22T05:20:51.879Z,10.36
2019-02-22T05:23:23.183Z,10.38
2019-02-22T05:25:54.295Z,10.34
2019-02-22T05:28:25.889Z,10.33
2019-02-22T05:30:57.036Z,10.31
2019-02-22T05:33:28.200Z,10.28
2019-02-22T05:35:59.427Z,10.29
2019-02-22T05:38:30.657Z,10.25
2019-02-22T05:41:01.886Z,10.25
2019-02-22T05:43:33.073Z,10.24
2019-02-22T05:46:04.345Z,10.20
2019-02-22T05:48:38.671Z,10.18
2019-02-22T05:51:08.589Z,10.18
2019-02-22T05:53:39.923Z,10.16
2019-02-22T05:56:12.145Z,10.15
2019-02-22T05:58:43.363Z,10.15
2019-02-22T06:01:14.577Z,10.16
2019-02-22T06:03:45.912Z,10.16
2019-02-22T06:06:17.291Z,10.18
2019-02-22T06:08:48.584Z,10.18
2019-02-22T06:11:20.959Z,10.21
2019-02-22T06:13:52.147Z,10.23
2019-02-22T06:16:23.553Z,10.25
2019-02-22T06:18:54.830Z,10.25
2019-02-22T06:21:26.048Z,10.25
2019-02-22T06:23:57.237Z,10.25
2019-02-22T06:26:30.404Z,10.28
2019-02-22T06:29:01.450Z,10.29
2019-02-22T06:31:32.652Z,10.31
2019-02-22T06:34:03.838Z,10.32
2019-02-22T06:36:35.072Z,10.31
2019-02-22T06:39:06.462Z,10.29
2019-02-22T06:41:37.691Z,10.28
2019-02-22T06:44:08.922Z,10.25
2019-02-22T06:46:40.156Z,10.22
2019-02-22T06:49:11.394Z,10.19
2019-02-22T06:51:42.603Z,10.17
2019-02-22T06:54:14.917Z,10.17
2019-02-22T06:56:47.143Z,10.17
2019-02-22T06:59:20.205Z,10.17
2019-02-22T07:01:51.452Z,10.17
2019-02-22T07:04:22.617Z,10.18
2019-02-22T07:06:53.825Z,10.17
2019-02-22T07:09:25.025Z,10.13
2019-02-22T07:11:59.495Z,10.11
2019-02-22T07:14:30.712Z,10.10
2019-02-22T07:17:02.089Z,10.09
2019-02-22T07:19:33.258Z,10.09
2019-02-22T07:22:04.467Z,10.06
2019-02-22T07:24:35.650Z,10.04
2019-02-22T07:27:06.804Z,10.00
2019-02-22T07:29:38.035Z,9.97
2019-02-22T07:32:09.232Z,9.93
2019-02-22T07:34:40.421Z,9.91
2019-02-22T07:37:11.552Z,9.86
2019-02-22T07:39:42.770Z,9.81
2019-02-22T07:42:14.027Z,9.77
2019-02-22T07:44:45.198Z,9.75
2019-02-22T07:47:16.418Z,9.72
2019-02-22T07:49:47.636Z,9.65
2019-02-22T07:52:18.855Z,9.62
2019-02-22T07:54:50.029Z,9.57
2019-02-22T07:57:21.200Z,9.54
2019-02-22T07:59:52.368Z,9.51
2019-02-22T08:02:23.567Z,9.49
2019-02-22T08:04:54.751Z,9.45
2019-02-22T08:07:26.030Z,9.40
2019-02-22T08:09:57.255Z,9.31
2019-02-22T08:12:28.402Z,9.20
2019-02-22T08:14:59.587Z,9.15
2019-02-22T08:17:30.860Z,9.11
2019-02-22T08:20:02.076Z,9.10
2019-02-22T08:22:33.386Z,9.07
2019-02-22T08:25:04.520Z,9.04
2019-02-22T08:27:35.732Z,8.99
2019-02-22T08:30:08.822Z,8.96
2019-02-22T08:32:40.029Z,8.92
2019-02-22T08:35:10.546Z,8.88
2019-02-22T08:37:41.857Z,8.80
2019-02-22T08:40:13.024Z,8.73
2019-02-22T08:42:44.189Z,8.66
2019-02-22T08:45:15.418Z,8.54
2019-02-22T08:47:46.538Z,8.42
2019-02-22T08:50:17.747Z,8.23
2019-02-22T08:52:48.926Z,8.05
2019-02-22T08:55:20.142Z,7.91
2019-02-22T08:57:52.354Z,7.78
2019-02-22T09:00:23.542Z,7.70
2019-02-22T09:02:54.790Z,7.64
2019-02-22T09:05:26.028Z,7.58
2019-02-22T09:07:57.325Z,7.53
2019-02-22T09:10:28.570Z,7.52
2019-02-22T09:12:59.859Z,7.53
2019-02-22T09:15:31.039Z,7.53
2019-02-22T09:18:02.190Z,7.53
2019-02-22T09:20:34.459Z,7.52
2019-02-22T09:23:07.609Z,7.53
2019-02-22T09:25:39.728Z,7.52
2019-02-22T09:28:10.878Z,7.51
2019-02-22T09:30:42.135Z,7.46
2019-02-22T09:33:13.439Z,7.44
2019-02-22T09:35:44.631Z,7.43
2019-02-22T09:38:15.842Z,7.43
2019-02-22T09:40:47.086Z,7.42
2019-02-22T09:43:18.278Z,7.41
2019-02-22T09:45:49.486Z,7.36
2019-02-22T09:48:20.754Z,7.31
2019-02-22T09:50:51.967Z,7.28
2019-02-22T09:53:23.180Z,7.24
2019-02-22T09:55:54.529Z,7.17
2019-02-22T09:58:26.794Z,7.11
2019-02-22T10:00:58.077Z,7.05
2019-02-22T10:03:29.275Z,7.02
2019-02-22T10:06:00.435Z,6.99
2019-02-22T10:08:31.775Z,6.95
2019-02-22T10:11:02.958Z,6.92
2019-02-22T10:13:34.254Z,6.92
2019-02-22T10:16:05.415Z,6.94
2019-02-22T10:18:36.793Z,6.97
2019-02-22T10:21:07.989Z,6.98
2019-02-22T10:23:39.215Z,6.99
2019-02-22T10:26:10.503Z,7.01
2019-02-22T10:28:41.699Z,7.04
2019-02-22T10:31:12.929Z,7.06
2019-02-22T10:33:44.103Z,7.07
2019-02-22T10:36:15.304Z,7.09
2019-02-22T10:38:46.521Z,7.10
2019-02-22T10:41:17.714Z,7.08
2019-02-22T10:43:49.114Z,7.07
2019-02-22T10:46:22.466Z,7.06
2019-02-22T10:48:53.861Z,7.07
2019-02-22T10:51:25.151Z,7.06
2019-02-22T10:53:56.347Z,7.05
2019-02-22T10:56:28.458Z,7.03
2019-02-22T10:58:59.698Z,7.02
2019-02-22T11:01:30.974Z,6.99
2019-02-22T11:04:02.140Z,6.95
2019-02-22T11:06:33.327Z,6.89
2019-02-22T11:09:05.525Z,6.85
2019-02-22T11:11:37.597Z,6.85
2019-02-22T11:14:08.772Z,6.85
2019-02-22T11:16:39.945Z,6.85
2019-02-22T11:19:11.303Z,6.84
2019-02-22T11:21:42.504Z,6.81
2019-02-22T11:24:13.677Z,6.81
2019-02-22T11:26:44.945Z,6.81
2019-02-22T11:29:17.264Z,6.82
2019-02-22T11:31:48.482Z,6.80
2019-02-22T11:34:19.664Z,6.82
2019-02-22T11:36:51.026Z,6.84
2019-02-22T11:39:22.226Z,6.86
2019-02-22T11:41:53.452Z,6.89
2019-02-22T11:44:24.665Z,6.93
2019-02-22T11:46:55.945Z,6.96
2019-02-22T11:49:27.183Z,7.00
2019-02-22T11:51:58.390Z,7.04
2019-02-22T11:54:29.605Z,7.08
2019-02-22T11:57:00.811Z,7.12
2019-02-22T11:59:31.951Z,7.16
2019-02-22T12:02:03.278Z,7.23
2019-02-22T12:04:34.473Z,7.27
2019-02-22T12:07:05.651Z,7.32
2019-02-22T12:09:36.844Z,7.37
2019-02-22T12:12:08.136Z,7.43
2019-02-22T12:14:39.337Z,7.49
2019-02-22T12:17:10.594Z,7.57
2019-02-22T12:19:41.765Z,7.64
2019-02-22T12:22:13.990Z,7.75
2019-02-22T12:24:45.231Z,7.85
2019-02-22T12:27:16.483Z,7.93
2019-02-22T12:29:47.654Z,8.02
2019-02-22T12:32:18.864Z,8.13
2019-02-22T12:34:51.130Z,8.24
2019-02-22T12:37:22.315Z,8.37
2019-02-22T12:39:53.524Z,8.46
2019-02-22T12:42:24.823Z,8.55
2019-02-22T12:45:02.993Z,8.62
2019-02-22T12:47:28.964Z,8.68
2019-02-22T12:50:00.250Z,8.76
2019-02-22T12:52:31.530Z,8.82
2019-02-22T12:55:02.692Z,8.91
2019-02-22T12:57:34.935Z,8.96
2019-02-22T13:00:07.893Z,9.01
2019-02-22T13:02:39.222Z,9.09
2019-02-22T13:05:12.478Z,9.22
2019-02-22T13:07:43.636Z,9.48
2019-02-22T13:10:15.047Z,9.86
2019-02-22T13:12:47.314Z,10.39
2019-02-22T13:15:18.662Z,11.04
2019-02-22T13:17:49.849Z,11.70
2019-02-22T13:20:21.011Z,12.42
2019-02-22T13:22:52.215Z,13.13
2019-02-22T13:25:23.482Z,13.83
2019-02-22T13:27:54.633Z,14.41
2019-02-22T13:30:25.846Z,14.87
2019-02-22T13:32:57.056Z,14.98
2019-02-22T13:35:28.277Z,14.91
2019-02-22T13:37:59.456Z,14.84
2019-02-22T13:40:30.676Z,14.69
2019-02-22T13:43:01.889Z,14.48
2019-02-22T13:45:34.108Z,14.22
2019-02-22T13:48:05.323Z,13.95
2019-02-22T13:50:36.520Z,13.65
2019-02-22T13:53:07.704Z,13.36
2019-02-22T13:55:39.007Z,13.27
2019-02-22T13:58:10.192Z,13.50
2019-02-22T14:00:41.353Z,13.92
2019-02-22T14:03:12.587Z,14.23
2019-02-22T14:05:43.758Z,14.69
2019-02-22T14:08:14.944Z,15.22
2019-02-22T14:10:46.208Z,15.80
2019-02-22T14:13:17.653Z,16.35
2019-02-22T14:15:48.860Z,16.83
2019-02-22T14:18:20.104Z,17.27
2019-02-22T14:20:51.369Z,17.48
2019-02-22T14:23:22.541Z,17.80
2019-02-22T14:25:53.782Z,18.15
2019-02-22T14:28:25.043Z,18.35
2019-02-22T14:30:56.212Z,18.39
2019-02-22T14:33:27.400Z,18.14
2019-02-22T14:35:58.580Z,17.92
2019-02-22T14:38:29.808Z,18.08
2019-02-22T14:41:01.008Z,18.27
2019-02-22T14:43:32.334Z,18.51
2019-02-22T14:46:03.499Z,18.80
2019-02-22T14:48:34.667Z,18.93
2019-02-22T14:51:05.906Z,18.97
2019-02-22T14:53:37.115Z,18.98
2019-02-22T14:56:08.376Z,18.81
2019-02-22T14:58:39.666Z,18.64
2019-02-22T15:01:10.926Z,18.48
2019-02-22T15:03:42.131Z,18.07
2019-02-22T15:06:13.302Z,17.66
2019-02-22T15:08:44.530Z,17.22
2019-02-22T15:11:15.723Z,16.75
2019-02-22T15:13:47.934Z,16.39
2019-02-22T15:16:44.108Z,16.11
2019-02-22T15:19:15.741Z,15.85
2019-02-22T15:21:47.181Z,15.67
2019-02-22T15:24:18.376Z,15.66
2019-02-22T15:26:49.583Z,15.60
2019-02-22T15:29:20.817Z,15.55
2019-02-22T15:31:52.082Z,15.55
2019-02-22T15:34:23.336Z,15.60
2019-02-22T15:36:54.542Z,15.66
2019-02-22T15:39:25.980Z,15.73
2019-02-22T15:41:57.253Z,15.79
2019-02-22T15:44:28.582Z,15.80
2019-02-22T15:47:11.063Z,15.76
2019-02-22T15:49:33.033Z,15.56
2019-02-22T15:52:04.459Z,15.30
2019-02-22T15:54:35.691Z,15.00
2019-02-22T15:57:06.846Z,14.62
2019-02-22T15:59:38.067Z,14.28
2019-02-22T16:02:09.327Z,13.94
2019-02-22T16:04:54.019Z,13.63
2019-02-22T16:07:26.230Z,13.32
2019-02-22T16:09:57.384Z,12.98
2019-02-22T16:12:28.787Z,12.71
2019-02-22T16:14:59.980Z,12.47
2019-02-22T16:17:32.274Z,12.21
2019-02-22T16:20:04.430Z,11.97
2019-02-22T16:22:35.655Z,11.74
2019-02-22T16:25:18.562Z,11.51
2019-02-22T16:27:39.849Z,11.31
2019-02-22T16:30:12.420Z,11.13
2019-02-22T16:32:43.538Z,10.93
2019-02-22T16:35:17.653Z,10.75
2019-02-22T16:37:48.788Z,10.55
2019-02-22T16:40:19.991Z,10.34
2019-02-22T16:42:51.226Z,10.14
2019-02-22T16:45:22.480Z,9.96
2019-02-22T16:47:53.677Z,9.79
2019-02-22T16:50:24.823Z,9.65
2019-02-22T16:52:56.095Z,9.48
2019-02-22T16:55:31.236Z,9.35
2019-02-22T16:58:02.481Z,9.22
2019-02-22T17:00:33.715Z,9.09
2019-02-22T17:03:05.480Z,8.96
2019-02-22T17:05:36.744Z,8.86
2019-02-22T17:08:07.916Z,8.73
2019-02-22T17:10:39.065Z,8.62
2019-02-22T17:13:10.798Z,8.52
2019-02-22T17:15:42.049Z,8.42
2019-02-22T17:18:13.266Z,8.32
2019-02-22T17:20:44.743Z,8.18
2019-02-22T17:23:15.953Z,8.07
2019-02-22T17:25:47.140Z,7.95
2019-02-22T17:28:18.390Z,7.87
2019-02-22T17:30:49.616Z,7.80
2019-02-22T17:33:20.751Z,7.72
2019-02-22T17:35:52.120Z,7.64
2019-02-22T17:38:23.240Z,7.57
2019-02-22T17:40:54.526Z,7.50
2019-02-22T17:43:25.749Z,7.41
2019-02-22T17:45:56.992Z,7.34
2019-02-22T17:48:28.184Z,7.26
2019-02-22T17:50:59.333Z,7.22
2019-02-22T17:53:30.633Z,7.15
2019-02-22T17:56:03.000Z,7.09
2019-02-22T17:58:34.227Z,7.04
2019-02-22T18:01:05.508Z,6.99
2019-02-22T18:03:36.694Z,6.93
2019-02-22T18:06:07.921Z,6.86
2019-02-22T18:08:39.219Z,6.78
2019-02-22T18:11:10.430Z,6.71
2019-02-22T18:13:41.648Z,6.66
2019-02-22T18:16:12.865Z,6.61
2019-02-22T18:18:44.344Z,6.56
2019-02-22T18:21:15.584Z,6.51
2019-02-22T18:23:47.080Z,6.47
2019-02-22T18:26:18.319Z,6.43
2019-02-22T18:28:49.618Z,6.36
2019-02-22T18:31:20.911Z,6.32
2019-02-22T18:33:52.113Z,6.28
2019-02-22T18:36:23.280Z,6.23
2019-02-22T18:38:54.524Z,6.18
2019-02-22T18:41:25.743Z,6.12
2019-02-22T18:43:56.938Z,6.05
2019-02-22T18:46:28.103Z,5.98
2019-02-22T18:48:59.264Z,5.93
2019-02-22T18:51:30.461Z,5.89
2019-02-22T18:54:01.678Z,5.86
2019-02-22T18:56:32.891Z,5.79
2019-02-22T18:59:04.075Z,5.75
2019-02-22T19:01:35.265Z,5.71
2019-02-22T19:04:10.715Z,5.66
2019-02-22T19:06:42.006Z,5.62
2019-02-22T19:09:13.180Z,5.58
2019-02-22T19:11:44.315Z,5.54
2019-02-22T19:14:15.533Z,5.49
2019-02-22T19:16:46.701Z,5.43
2019-02-22T19:19:18.028Z,5.40
2019-02-22T19:21:49.264Z,5.36
2019-02-22T19:24:21.506Z,5.33
2019-02-22T19:26:52.821Z,5.31
2019-02-22T19:29:25.066Z,5.27
2019-02-22T19:31:56.613Z,5.23
2019-02-22T19:34:27.917Z,5.18
2019-02-22T19:36:59.126Z,5.14
2019-02-22T19:39:31.325Z,5.12
2019-02-22T19:42:02.536Z,5.09
2019-02-22T19:44:35.156Z,5.04
2019-02-22T19:47:06.622Z,5.01
2019-02-22T19:49:38.772Z,4.98
2019-02-22T19:52:10.402Z,4.94
2019-02-22T19:54:44.752Z,4.92
2019-02-22T19:57:15.272Z,4.90
2019-02-22T19:59:46.538Z,4.85
2019-02-22T20:02:17.779Z,4.83
2019-02-22T20:04:49.132Z,4.81
2019-02-22T20:07:20.328Z,4.78
2019-02-22T20:09:55.471Z,4.74
2019-02-22T20:12:29.164Z,4.71
2019-02-22T20:14:59.774Z,4.66
2019-02-22T20:17:31.159Z,4.63
2019-02-22T20:20:02.453Z,4.58
2019-02-22T20:22:33.808Z,4.54
2019-02-22T20:25:05.165Z,4.47
2019-02-22T20:27:36.355Z,4.47
2019-02-22T20:30:09.449Z,4.45
2019-02-22T20:32:40.694Z,4.39
2019-02-22T20:35:14.557Z,4.37
2019-02-22T20:37:52.622Z,4.37
2019-02-22T20:40:18.838Z,4.31
2019-02-22T20:42:50.473Z,4.31
2019-02-22T20:45:21.952Z,4.29
2019-02-22T20:48:05.023Z,4.27
2019-02-22T20:50:34.921Z,4.24
2019-02-22T20:53:08.191Z,4.14
2019-02-22T20:55:39.583Z,4.17
2019-02-22T20:58:10.951Z,4.13
2019-02-22T21:00:42.147Z,4.11
2019-02-22T21:03:16.138Z,4.05
2019-02-22T21:05:46.636Z,4.01
2019-02-22T21:08:17.871Z,3.96
2019-02-22T21:10:49.139Z,3.92
2019-02-22T21:13:20.511Z,3.88
2019-02-22T21:15:51.844Z,3.84
2019-02-22T21:18:23.173Z,3.77
2019-02-22T21:20:54.399Z,3.73
2019-02-22T21:23:25.684Z,3.68
2019-02-22T21:25:56.879Z,3.64
2019-02-22T21:28:29.477Z,3.62
2019-02-22T21:31:00.758Z,3.58
2019-02-22T21:33:32.051Z,3.58
2019-02-22T21:36:04.852Z,3.56
2019-02-22T21:38:36.062Z,3.52
2019-02-22T21:41:07.301Z,3.50
2019-02-22T21:43:38.562Z,3.47
2019-02-22T21:46:09.834Z,3.47
2019-02-22T21:48:41.714Z,3.45
2019-02-22T21:51:12.933Z,3.44
2019-02-22T21:53:45.267Z,3.42
2019-02-22T21:56:16.953Z,3.40
2019-02-22T21:58:51.411Z,3.39
2019-02-22T22:01:22.680Z,3.39
2019-02-22T22:03:53.969Z,3.37
2019-02-22T22:06:25.120Z,3.36
2019-02-22T22:08:56.294Z,3.33
2019-02-22T22:11:27.522Z,3.30
2019-02-22T22:13:58.718Z,3.27
2019-02-22T22:16:30.007Z,3.25
2019-02-22T22:19:01.238Z,3.21
2019-02-22T22:21:32.412Z,3.19
2019-02-22T22:24:03.613Z,3.20
2019-02-22T22:26:34.807Z,3.18
2019-02-22T22:29:06.035Z,3.15
2019-02-22T22:31:37.287Z,3.12
2019-02-22T22:34:08.653Z,3.09
2019-02-22T22:36:41.006Z,3.07
2019-02-22T22:39:12.160Z,3.06
2019-02-22T22:41:43.493Z,3.03
2019-02-22T22:44:14.689Z,3.00
2019-02-22T22:46:47.009Z,2.97
2019-02-22T22:49:18.233Z,2.94
2019-02-22T22:51:49.412Z,2.92
2019-02-22T22:54:20.571Z,2.91
2019-02-22T22:56:51.897Z,2.90
2019-02-22T22:59:23.030Z,2.88
2019-02-22T23:01:55.512Z,2.87
2019-02-22T23:04:26.786Z,2.84
2019-02-22T23:06:58.164Z,2.80
2019-02-22T23:09:29.479Z,2.77
2019-02-22T23:12:00.764Z,2.73
2019-02-22T23:14:32.556Z,2.70
2019-02-22T23:17:03.725Z,2.68
2019-02-22T23:19:35.105Z,2.67
2019-02-22T23:22:06.238Z,2.65
2019-02-22T23:24:37.743Z,2.64
2019-02-22T23:27:10.057Z,2.62
2019-02-22T23:29:41.346Z,2.61
2019-02-22T23:32:12.540Z,2.60
2019-02-22T23:34:43.750Z,2.59
2019-02-22T23:37:14.923Z,2.58
2019-02-22T23:39:46.208Z,2.57
2019-02-22T23:42:18.981Z,2.55
2019-02-22T23:44:50.168Z,2.53
2019-02-22T23:47:21.362Z,2.51
2019-02-22T23:49:52.595Z,2.49
2019-02-22T23:52:23.786Z,2.48
2019-02-22T23:54:54.980Z,2.47
2019-02-22T23:57:26.164Z,2.46
2019-02-22T23:59:57.401Z,2.45
